Terminal Aerodrome Forecast
Issued by NWS Charleston, SC

Home | Current Version | Previous Version | Text Only | Print | Product List | Glossary On
Versions: 1 2 3 4 5 6 7 8 9 10 11 12 13 14 15 16 17 18 19 20
000
FTUS42 KCHS 230800 AAA
TAFSAV
TAF AMD
KSAV 230802Z 2308/2406 25004KT 6SM MIFG SKC
     FM231000 30005KT 4SM BR SCT004
      TEMPO 2310/2312 2SM BR BKN002
     FM231230 34008KT P6SM FEW010
     FM231600 32008KT P6SM FEW040
     FM232100 12008KT P6SM SKC=

USA.gov is the U.S. government's official web portal to all federal, state and local government web resources and services.